createdAt,value
2022-07-26T00:01:31.817Z,99.90
2022-07-26T00:04:00.252Z,99.90
2022-07-26T00:06:27.723Z,99.90
2022-07-26T00:08:54.776Z,99.90
2022-07-26T00:11:22.589Z,99.90
2022-07-26T00:13:49.649Z,99.90
2022-07-26T00:16:16.682Z,99.90
2022-07-26T00:18:44.063Z,99.90
2022-07-26T00:21:11.592Z,99.90
2022-07-26T00:23:39.131Z,99.90
2022-07-26T00:26:06.098Z,99.90
2022-07-26T00:28:33.114Z,99.90
2022-07-26T00:31:01.079Z,99.90
2022-07-26T00:33:28.159Z,99.90
2022-07-26T00:35:55.207Z,99.90
2022-07-26T00:38:22.224Z,99.90
2022-07-26T00:40:49.277Z,99.90
2022-07-26T00:43:16.364Z,99.90
2022-07-26T00:45:43.546Z,99.90
2022-07-26T00:48:10.593Z,99.90
2022-07-26T00:50:37.660Z,99.90
2022-07-26T00:53:04.838Z,99.90
2022-07-26T00:55:32.174Z,99.90
2022-07-26T00:58:01.335Z,99.90
2022-07-26T01:00:29.146Z,99.90
2022-07-26T01:02:56.778Z,99.90
2022-07-26T01:05:24.413Z,99.90
2022-07-26T01:07:53.134Z,99.90
2022-07-26T01:10:20.315Z,99.90
2022-07-26T01:12:47.267Z,99.90
2022-07-26T01:15:16.108Z,99.90
2022-07-26T01:17:43.492Z,99.90
2022-07-26T01:20:12.656Z,99.90
2022-07-26T01:22:39.883Z,99.90
2022-07-26T01:25:07.564Z,99.90
2022-07-26T01:27:39.569Z,99.90
2022-07-26T01:30:11.630Z,99.90
2022-07-26T01:32:38.852Z,99.90
2022-07-26T01:35:07.220Z,99.90
2022-07-26T01:37:34.400Z,99.90
2022-07-26T01:40:01.511Z,99.90
2022-07-26T01:42:28.464Z,99.90
2022-07-26T01:44:55.515Z,99.90
2022-07-26T01:47:22.545Z,99.90
2022-07-26T01:49:49.923Z,99.90
2022-07-26T01:52:16.961Z,99.90
2022-07-26T01:54:43.880Z,99.90
2022-07-26T01:57:11.244Z,99.90
2022-07-26T01:59:38.172Z,99.90
2022-07-26T02:02:05.161Z,99.90
2022-07-26T02:04:50.819Z,99.90
2022-07-26T02:07:17.783Z,99.90
2022-07-26T02:09:44.997Z,99.90
2022-07-26T02:12:13.559Z,99.90
2022-07-26T02:14:40.663Z,99.90
2022-07-26T02:17:07.842Z,99.90
2022-07-26T02:19:34.826Z,99.90
2022-07-26T02:22:02.121Z,99.90
2022-07-26T02:24:29.551Z,99.90
2022-07-26T02:26:57.961Z,99.90
2022-07-26T02:29:25.351Z,99.90
2022-07-26T02:31:53.483Z,99.90
2022-07-26T02:34:21.058Z,99.90
2022-07-26T02:36:48.164Z,99.90
2022-07-26T02:39:15.372Z,99.90
2022-07-26T02:41:42.711Z,99.90
2022-07-26T02:44:10.520Z,99.90
2022-07-26T02:46:38.026Z,99.90
2022-07-26T02:49:05.291Z,99.90
2022-07-26T02:51:32.544Z,99.90
2022-07-26T02:53:59.573Z,99.90
2022-07-26T02:56:26.529Z,99.90
2022-07-26T02:58:53.475Z,99.90
2022-07-26T03:01:20.537Z,99.90
2022-07-26T03:03:50.749Z,99.90
2022-07-26T03:06:19.270Z,99.90
2022-07-26T03:08:47.127Z,99.90
2022-07-26T03:11:14.204Z,99.90
2022-07-26T03:13:41.327Z,99.90
2022-07-26T03:16:08.714Z,99.90
2022-07-26T03:18:35.992Z,99.90
2022-07-26T03:21:03.211Z,99.90
2022-07-26T03:23:33.512Z,99.90
2022-07-26T03:26:02.019Z,99.90
2022-07-26T03:28:33.355Z,99.90
2022-07-26T03:31:01.044Z,99.90
2022-07-26T03:33:28.984Z,99.90
2022-07-26T03:35:56.089Z,99.90
2022-07-26T03:38:23.137Z,99.90
2022-07-26T03:40:50.166Z,99.90
2022-07-26T03:43:21.205Z,99.90
2022-07-26T03:45:49.995Z,99.90
2022-07-26T03:48:17.141Z,99.90
2022-07-26T03:50:59.365Z,99.90
2022-07-26T03:53:26.434Z,99.90
2022-07-26T03:56:11.857Z,99.90
2022-07-26T03:58:38.909Z,99.90
2022-07-26T04:01:06.091Z,99.90
2022-07-26T04:03:33.195Z,99.90
2022-07-26T04:06:00.415Z,99.90
2022-07-26T04:08:28.469Z,99.90
2022-07-26T04:10:55.461Z,99.90
2022-07-26T04:13:24.162Z,99.90
2022-07-26T04:15:51.212Z,99.90
2022-07-26T04:18:18.122Z,99.90
2022-07-26T04:20:45.142Z,99.90
2022-07-26T04:23:12.638Z,99.90
2022-07-26T04:25:41.675Z,99.90
2022-07-26T04:28:09.829Z,99.90
2022-07-26T04:30:36.963Z,99.90
2022-07-26T04:33:04.653Z,99.90
2022-07-26T04:35:32.450Z,98.90
2022-07-26T04:37:59.860Z,98.10
2022-07-26T04:40:29.275Z,96.50
2022-07-26T04:42:56.382Z,94.30
2022-07-26T04:45:23.414Z,93.50
2022-07-26T04:47:50.780Z,92.70
2022-07-26T04:50:19.667Z,91.50
2022-07-26T04:52:46.925Z,90.70
2022-07-26T04:55:14.541Z,90.20
2022-07-26T04:57:41.605Z,89.40
2022-07-26T05:00:26.469Z,87.90
2022-07-26T05:02:56.037Z,85.80
2022-07-26T05:05:24.347Z,86.10
2022-07-26T05:07:54.980Z,85.00
2022-07-26T05:10:23.558Z,82.80
2022-07-26T05:12:50.660Z,81.90
2022-07-26T05:15:17.729Z,81.30
2022-07-26T05:17:45.097Z,81.30
2022-07-26T05:20:15.997Z,79.30
2022-07-26T05:22:43.400Z,78.00
2022-07-26T05:25:10.617Z,77.50
2022-07-26T05:27:39.065Z,76.60
2022-07-26T05:30:06.627Z,77.60
2022-07-26T05:32:33.629Z,80.10
2022-07-26T05:35:00.526Z,80.40
2022-07-26T05:37:27.509Z,79.70
2022-07-26T05:39:54.460Z,78.80
2022-07-26T05:42:21.494Z,77.10
2022-07-26T05:44:48.390Z,75.70
2022-07-26T05:47:16.541Z,75.20
2022-07-26T05:49:43.536Z,73.60
2022-07-26T05:52:10.658Z,73.30
2022-07-26T05:54:37.857Z,73.90
2022-07-26T05:57:05.032Z,73.40
2022-07-26T05:59:32.453Z,72.00
2022-07-26T06:01:59.704Z,70.40
2022-07-26T06:04:27.731Z,69.90
2022-07-26T06:06:55.243Z,69.30
2022-07-26T06:09:25.242Z,69.10
2022-07-26T06:11:52.265Z,68.90
2022-07-26T06:14:20.223Z,68.20
2022-07-26T06:16:48.112Z,67.20
2022-07-26T06:19:15.295Z,66.80
2022-07-26T06:21:42.885Z,67.70
2022-07-26T06:24:10.433Z,67.60
2022-07-26T06:26:37.726Z,66.90
2022-07-26T06:29:04.870Z,66.70
2022-07-26T06:31:31.888Z,66.10
2022-07-26T06:33:58.882Z,65.70
2022-07-26T06:36:30.249Z,65.50
2022-07-26T06:38:58.564Z,64.20
2022-07-26T06:41:26.713Z,65.00
2022-07-26T06:43:53.682Z,64.30
2022-07-26T06:46:21.429Z,64.20
2022-07-26T06:48:52.631Z,64.90
2022-07-26T06:51:20.277Z,64.40
2022-07-26T06:53:47.432Z,63.90
2022-07-26T06:56:15.176Z,63.50
2022-07-26T06:58:42.758Z,63.10
2022-07-26T07:01:10.009Z,63.60
2022-07-26T07:03:37.922Z,63.40
2022-07-26T07:06:05.220Z,62.60
2022-07-26T07:08:32.282Z,62.50
2022-07-26T07:10:59.433Z,61.80
2022-07-26T07:13:28.884Z,61.50
2022-07-26T07:15:55.895Z,62.10
2022-07-26T07:18:23.187Z,61.90
2022-07-26T07:20:50.116Z,61.60
2022-07-26T07:23:17.170Z,61.60
2022-07-26T07:25:44.808Z,61.20
2022-07-26T07:28:12.118Z,60.70
2022-07-26T07:30:41.221Z,60.30
2022-07-26T07:33:22.010Z,60.30
2022-07-26T07:35:51.029Z,60.10
2022-07-26T07:38:18.417Z,59.80
2022-07-26T07:40:46.138Z,59.50
2022-07-26T07:43:13.150Z,59.00
2022-07-26T07:45:40.247Z,58.30
2022-07-26T07:48:07.274Z,58.80
2022-07-26T07:50:34.424Z,59.00
2022-07-26T07:53:02.326Z,58.60
2022-07-26T07:55:41.419Z,57.80
2022-07-26T07:58:13.871Z,57.20
2022-07-26T08:00:41.992Z,57.10
2022-07-26T08:03:09.121Z,57.20
2022-07-26T08:05:40.300Z,56.70
2022-07-26T08:08:08.194Z,56.50
2022-07-26T08:10:35.894Z,56.60
2022-07-26T08:13:09.086Z,57.10
2022-07-26T08:15:39.105Z,56.30
2022-07-26T08:18:06.547Z,55.30
2022-07-26T08:20:35.702Z,55.30
2022-07-26T08:23:03.926Z,55.30
2022-07-26T08:25:31.498Z,55.60
2022-07-26T08:28:03.451Z,55.10
2022-07-26T08:30:31.960Z,55.30
2022-07-26T08:32:59.333Z,54.30
2022-07-26T08:35:26.796Z,54.10
2022-07-26T08:37:53.881Z,53.20
2022-07-26T08:40:21.098Z,53.20
2022-07-26T08:42:56.866Z,52.70
2022-07-26T08:45:29.983Z,52.30
2022-07-26T08:50:45.286Z,51.80
2022-07-26T08:53:13.429Z,51.50
2022-07-26T08:56:05.454Z,51.00
2022-07-26T08:58:27.786Z,51.50
2022-07-26T09:01:05.991Z,50.70
2022-07-26T09:03:33.468Z,51.20
2022-07-26T09:06:22.330Z,50.30
2022-07-26T09:08:53.437Z,50.00
2022-07-26T09:11:28.683Z,49.30
2022-07-26T09:14:04.935Z,49.70
2022-07-26T09:16:37.262Z,48.50
2022-07-26T09:19:23.698Z,48.70
2022-07-26T09:21:52.068Z,47.80
2022-07-26T09:24:46.249Z,48.90
2022-07-26T09:27:18.293Z,47.60
2022-07-26T09:29:54.207Z,48.80
2022-07-26T09:32:26.895Z,50.40
2022-07-26T09:35:00.011Z,49.50
2022-07-26T09:37:35.870Z,48.70
2022-07-26T09:40:09.048Z,48.90
2022-07-26T09:42:36.473Z,49.00
2022-07-26T09:45:15.638Z,48.60
2022-07-26T09:47:43.017Z,48.70
2022-07-26T09:50:21.470Z,48.50
2022-07-26T09:53:08.894Z,48.80
2022-07-26T09:55:45.234Z,48.30
2022-07-26T09:58:17.604Z,49.60
2022-07-26T10:00:45.322Z,48.50
2022-07-26T10:03:13.056Z,48.80
2022-07-26T10:05:40.311Z,48.80
2022-07-26T10:08:08.500Z,49.40
2022-07-26T10:10:49.805Z,49.50
2022-07-26T10:13:17.714Z,49.50
2022-07-26T10:15:50.898Z,49.80
2022-07-26T10:18:36.790Z,49.60
2022-07-26T10:21:31.886Z,50.20
2022-07-26T10:24:03.496Z,49.20
2022-07-26T10:26:34.122Z,50.20
2022-07-26T10:29:21.005Z,50.50
2022-07-26T10:32:09.798Z,50.40
2022-07-26T10:34:38.835Z,50.70
2022-07-26T10:37:09.230Z,49.60
2022-07-26T10:39:38.262Z,49.90
2022-07-26T10:42:09.223Z,48.30
2022-07-26T10:44:47.656Z,48.40
2022-07-26T10:47:21.445Z,48.40
2022-07-26T10:49:59.514Z,48.10
2022-07-26T10:52:31.268Z,47.40
2022-07-26T10:55:01.503Z,47.30
2022-07-26T10:57:34.492Z,46.90
2022-07-26T11:00:02.864Z,48.20
2022-07-26T11:02:36.033Z,46.20
2022-07-26T11:05:15.256Z,46.30
2022-07-26T11:08:11.583Z,47.80
2022-07-26T11:10:46.442Z,48.80
2022-07-26T11:13:19.973Z,48.70
2022-07-26T11:16:10.182Z,50.60
2022-07-26T11:18:40.106Z,48.40
2022-07-26T11:21:18.007Z,47.80
2022-07-26T11:23:48.220Z,48.70
2022-07-26T11:26:20.333Z,48.30
2022-07-26T11:28:59.214Z,50.60
2022-07-26T11:31:51.357Z,48.60
2022-07-26T11:34:33.383Z,47.50
2022-07-26T11:37:03.674Z,48.40
2022-07-26T11:39:35.484Z,48.70
2022-07-26T11:42:08.410Z,48.30
2022-07-26T11:44:36.400Z,46.70
2022-07-26T11:47:17.665Z,48.10
2022-07-26T11:50:09.265Z,48.00
2022-07-26T11:52:32.411Z,46.00
2022-07-26T11:55:00.037Z,46.40
2022-07-26T11:57:32.895Z,47.10
2022-07-26T12:00:01.245Z,47.20
2022-07-26T12:02:30.331Z,47.70
2022-07-26T12:05:22.079Z,48.40
2022-07-26T12:07:55.684Z,47.00
2022-07-26T12:10:22.856Z,47.30
2022-07-26T12:12:50.053Z,47.60
2022-07-26T12:15:17.317Z,47.50
2022-07-26T12:18:00.592Z,48.70
2022-07-26T12:20:28.390Z,50.80
2022-07-26T12:23:06.103Z,52.30
2022-07-26T12:25:36.190Z,53.10
2022-07-26T12:28:03.280Z,53.50
2022-07-26T12:30:37.494Z,54.50
2022-07-26T12:33:05.028Z,55.10
2022-07-26T12:35:35.812Z,55.70
2022-07-26T12:38:03.734Z,56.30
2022-07-26T12:40:39.840Z,56.80
2022-07-26T12:43:06.846Z,57.30
2022-07-26T12:45:35.194Z,57.70
2022-07-26T12:48:07.349Z,58.00
2022-07-26T12:50:34.361Z,59.20
2022-07-26T12:53:09.004Z,59.80
2022-07-26T12:55:39.747Z,60.80
2022-07-26T12:58:06.682Z,61.20
2022-07-26T13:00:34.948Z,61.50
2022-07-26T13:03:03.632Z,61.70
2022-07-26T13:05:34.054Z,67.70
2022-07-26T13:08:03.639Z,66.10
2022-07-26T13:10:34.262Z,68.20
2022-07-26T13:13:04.510Z,67.20
2022-07-26T13:15:36.087Z,67.60
2022-07-26T13:18:14.763Z,65.60
2022-07-26T13:20:47.785Z,65.00
2022-07-26T13:23:21.736Z,65.10
2022-07-26T13:25:50.769Z,65.30
2022-07-26T13:28:25.340Z,65.40
2022-07-26T13:30:54.167Z,65.90
2022-07-26T13:33:24.777Z,65.90
2022-07-26T13:35:52.569Z,66.20
2022-07-26T13:38:21.368Z,67.50
2022-07-26T13:40:55.237Z,67.90
2022-07-26T13:43:22.220Z,70.40
2022-07-26T13:45:49.253Z,72.60
2022-07-26T13:48:17.283Z,76.00
2022-07-26T13:50:44.648Z,82.90
2022-07-26T13:53:11.731Z,90.10
2022-07-26T13:55:38.766Z,97.30
2022-07-26T13:58:09.910Z,99.90
2022-07-26T14:00:38.090Z,99.90
2022-07-26T14:03:05.204Z,99.90
2022-07-26T14:05:32.231Z,99.90
2022-07-26T14:07:59.276Z,99.90
2022-07-26T14:10:26.410Z,99.90
2022-07-26T14:12:53.800Z,99.90
2022-07-26T14:15:23.146Z,99.90
2022-07-26T14:17:52.531Z,99.90
2022-07-26T14:20:20.198Z,99.90
2022-07-26T14:22:48.415Z,99.90
2022-07-26T14:25:15.448Z,99.90
2022-07-26T14:27:42.403Z,99.90
2022-07-26T14:30:09.856Z,99.90
2022-07-26T14:32:36.884Z,99.90
2022-07-26T14:35:04.697Z,99.90
2022-07-26T14:37:41.738Z,99.90
2022-07-26T14:40:16.245Z,99.90
2022-07-26T14:42:43.739Z,99.90
2022-07-26T14:45:11.780Z,99.90
2022-07-26T14:47:39.011Z,99.90
2022-07-26T14:50:08.177Z,98.40
2022-07-26T14:52:54.424Z,99.20
2022-07-26T14:55:25.318Z,99.60
2022-07-26T14:57:52.760Z,99.90
2022-07-26T15:00:19.996Z,97.90
2022-07-26T15:02:48.474Z,95.50
2022-07-26T15:05:16.929Z,87.90
2022-07-26T15:07:44.601Z,72.40
2022-07-26T15:10:14.395Z,66.00
2022-07-26T15:12:42.352Z,67.40
2022-07-26T15:15:10.393Z,64.40
2022-07-26T15:17:37.387Z,65.70
2022-07-26T15:20:05.650Z,64.00
2022-07-26T15:22:32.741Z,66.10
2022-07-26T15:24:59.668Z,66.30
2022-07-26T15:27:26.664Z,67.70
2022-07-26T15:29:55.384Z,66.10
2022-07-26T15:32:25.420Z,64.60
2022-07-26T15:34:52.420Z,62.30
2022-07-26T15:37:19.947Z,61.10
2022-07-26T15:39:47.058Z,61.10
2022-07-26T15:42:15.794Z,63.50
2022-07-26T15:44:43.210Z,63.70
2022-07-26T15:47:10.897Z,64.50
2022-07-26T15:49:40.316Z,66.00
2022-07-26T15:52:10.555Z,65.70
2022-07-26T15:54:37.641Z,66.30
2022-07-26T15:57:04.699Z,67.90
2022-07-26T15:59:31.637Z,68.50
2022-07-26T16:01:58.629Z,68.90
2022-07-26T16:04:25.700Z,70.60
2022-07-26T16:06:52.814Z,71.00
2022-07-26T16:09:20.187Z,71.80
2022-07-26T16:11:48.641Z,72.10
2022-07-26T16:14:16.684Z,72.40
2022-07-26T16:16:44.574Z,72.30
2022-07-26T16:19:12.537Z,71.20
2022-07-26T16:21:40.637Z,72.20
2022-07-26T16:24:08.189Z,71.30
2022-07-26T16:26:36.246Z,71.10
2022-07-26T16:29:04.822Z,69.90
2022-07-26T16:31:33.218Z,69.00
2022-07-26T16:34:00.506Z,69.30
2022-07-26T16:36:27.618Z,70.60
2022-07-26T16:38:54.620Z,70.90
2022-07-26T16:41:21.687Z,71.90
2022-07-26T16:43:48.632Z,70.80
2022-07-26T16:46:15.926Z,71.00
2022-07-26T16:48:43.194Z,72.00
2022-07-26T16:51:10.197Z,71.40
2022-07-26T16:53:37.133Z,71.80
2022-07-26T16:56:04.158Z,73.30
2022-07-26T16:58:31.065Z,74.50
2022-07-26T17:00:58.066Z,74.70
2022-07-26T17:03:25.223Z,76.10
2022-07-26T17:05:52.188Z,77.70
2022-07-26T17:08:19.188Z,78.30
2022-07-26T17:10:46.396Z,78.00
2022-07-26T17:13:13.379Z,79.50
2022-07-26T17:15:40.381Z,78.80
2022-07-26T17:18:07.303Z,79.60
2022-07-26T17:20:34.464Z,80.90
2022-07-26T17:23:01.457Z,81.70
2022-07-26T17:25:28.554Z,82.90
2022-07-26T17:27:55.467Z,84.50
2022-07-26T17:30:22.515Z,85.50
2022-07-26T17:32:50.230Z,86.00
2022-07-26T17:35:17.365Z,86.00
2022-07-26T17:37:44.359Z,88.00
2022-07-26T17:40:11.923Z,89.10
2022-07-26T17:42:39.448Z,90.00
2022-07-26T17:45:07.261Z,91.00
2022-07-26T17:47:34.280Z,92.00
2022-07-26T17:52:51.428Z,94.10
2022-07-26T17:55:19.345Z,95.40
2022-07-26T17:57:47.965Z,96.20
2022-07-26T18:00:16.823Z,97.20
2022-07-26T18:02:43.923Z,98.20
2022-07-26T18:05:11.464Z,99.40
2022-07-26T18:07:38.975Z,99.90
2022-07-26T18:10:06.812Z,99.90
2022-07-26T18:12:33.807Z,99.90
2022-07-26T18:15:00.872Z,99.90
2022-07-26T18:17:27.923Z,99.90
2022-07-26T18:19:54.975Z,99.90
2022-07-26T18:22:23.483Z,99.90
2022-07-26T18:24:50.600Z,99.90
2022-07-26T18:27:17.668Z,99.90
2022-07-26T18:29:46.027Z,99.90
2022-07-26T18:32:13.470Z,99.90
2022-07-26T18:34:40.492Z,99.90
2022-07-26T18:37:19.581Z,99.90
2022-07-26T18:39:47.055Z,99.90
2022-07-26T18:42:14.116Z,99.90
2022-07-26T18:44:41.150Z,99.90
2022-07-26T18:47:08.687Z,99.90
2022-07-26T18:49:36.002Z,99.90
2022-07-26T18:52:08.798Z,99.90
2022-07-26T18:54:36.882Z,99.90
2022-07-26T18:57:04.584Z,99.90
2022-07-26T18:59:32.347Z,99.90
2022-07-26T19:02:00.369Z,99.90
2022-07-26T19:04:28.439Z,99.90
2022-07-26T19:06:55.740Z,99.90
2022-07-26T19:09:22.921Z,99.90
2022-07-26T19:11:50.002Z,99.90
2022-07-26T19:14:17.471Z,99.90
2022-07-26T19:16:44.653Z,99.90
2022-07-26T19:19:12.913Z,99.90
2022-07-26T19:21:45.911Z,99.90
2022-07-26T19:24:13.478Z,99.90
2022-07-26T19:26:40.445Z,99.90
2022-07-26T19:29:07.630Z,99.90
2022-07-26T19:31:35.304Z,99.90
2022-07-26T19:34:03.694Z,99.90
2022-07-26T19:36:30.715Z,99.90
2022-07-26T19:39:01.142Z,99.90
2022-07-26T19:41:28.141Z,99.90
2022-07-26T19:43:55.205Z,99.90
2022-07-26T19:46:22.231Z,99.90
2022-07-26T19:48:49.506Z,99.90
2022-07-26T19:51:17.208Z,99.90
2022-07-26T19:53:46.013Z,99.90
2022-07-26T19:56:13.265Z,99.90
2022-07-26T19:58:41.426Z,99.90
2022-07-26T20:01:08.547Z,99.90
2022-07-26T20:03:35.680Z,99.90
2022-07-26T20:06:03.203Z,99.90
2022-07-26T20:08:30.152Z,99.90
2022-07-26T20:10:57.593Z,99.90
2022-07-26T20:13:24.728Z,99.90
2022-07-26T20:15:51.955Z,99.90
2022-07-26T20:18:22.150Z,99.90
2022-07-26T20:20:49.697Z,99.90
2022-07-26T20:23:17.184Z,99.90
2022-07-26T20:25:47.035Z,99.90
2022-07-26T20:28:14.150Z,99.90
2022-07-26T20:30:41.358Z,99.90
2022-07-26T20:33:09.225Z,99.90
2022-07-26T20:35:36.556Z,99.90
2022-07-26T20:38:03.974Z,99.90
2022-07-26T20:40:31.320Z,99.90
2022-07-26T20:42:58.762Z,99.90
2022-07-26T20:45:26.121Z,99.90
2022-07-26T20:47:54.877Z,99.90
2022-07-26T20:50:23.620Z,99.90
2022-07-26T20:52:51.630Z,99.90
2022-07-26T20:55:19.052Z,99.90
2022-07-26T20:57:47.726Z,99.90
2022-07-26T21:00:15.618Z,99.90
2022-07-26T21:02:42.977Z,99.90
2022-07-26T21:05:11.438Z,99.90
2022-07-26T21:07:57.210Z,99.90
2022-07-26T21:10:26.361Z,99.90
2022-07-26T21:12:54.849Z,99.90
2022-07-26T21:15:22.026Z,99.90
2022-07-26T21:17:49.282Z,99.90
2022-07-26T21:20:17.457Z,99.90
2022-07-26T21:22:44.555Z,99.90
2022-07-26T21:25:11.589Z,99.90
2022-07-26T21:27:39.440Z,99.90
2022-07-26T21:30:08.033Z,99.90
2022-07-26T21:32:35.602Z,99.90
2022-07-26T21:35:03.256Z,99.90
2022-07-26T21:37:30.636Z,99.90
2022-07-26T21:40:00.982Z,99.90
2022-07-26T21:42:28.943Z,99.90
2022-07-26T21:44:56.038Z,99.90
2022-07-26T21:47:23.479Z,99.90
2022-07-26T21:49:50.420Z,99.90
2022-07-26T21:52:17.409Z,99.90
2022-07-26T21:54:44.445Z,99.90
2022-07-26T21:57:11.377Z,99.90
2022-07-26T21:59:38.351Z,99.90
2022-07-26T22:02:05.558Z,99.90
2022-07-26T22:04:32.592Z,99.90
2022-07-26T22:06:59.708Z,99.90
2022-07-26T22:09:26.811Z,99.90
2022-07-26T22:11:53.748Z,99.90
2022-07-26T22:14:21.292Z,99.90
2022-07-26T22:16:49.448Z,99.90
2022-07-26T22:19:16.494Z,99.90
2022-07-26T22:21:43.553Z,99.90
2022-07-26T22:24:10.584Z,99.90
2022-07-26T22:26:37.611Z,99.90
2022-07-26T22:29:04.680Z,99.90
2022-07-26T22:31:31.821Z,99.90
2022-07-26T22:33:58.788Z,99.90
2022-07-26T22:36:25.747Z,99.90
2022-07-26T22:38:53.112Z,99.90
2022-07-26T22:41:20.138Z,99.90
2022-07-26T22:43:47.098Z,99.90
2022-07-26T22:46:14.375Z,99.90
2022-07-26T22:48:45.939Z,99.90
2022-07-26T22:51:15.138Z,99.90
2022-07-26T22:53:42.057Z,99.90
2022-07-26T22:56:09.271Z,99.90
2022-07-26T22:58:37.976Z,99.90
2022-07-26T23:01:05.040Z,99.90
2022-07-26T23:03:32.113Z,99.90
2022-07-26T23:06:01.360Z,99.90
2022-07-26T23:11:15.421Z,99.90
2022-07-26T23:13:42.327Z,99.90
2022-07-26T23:16:09.309Z,99.90
2022-07-26T23:18:36.439Z,99.90
2022-07-26T23:21:04.368Z,99.90
2022-07-26T23:23:31.633Z,99.90
2022-07-26T23:25:59.848Z,99.90
2022-07-26T23:28:37.395Z,99.90
2022-07-26T23:31:12.624Z,99.90
2022-07-26T23:33:53.410Z,99.90
2022-07-26T23:36:26.406Z,99.90
2022-07-26T23:38:55.523Z,99.90
2022-07-26T23:41:23.113Z,99.90
2022-07-26T23:43:50.269Z,99.90
2022-07-26T23:46:17.903Z,99.90
2022-07-26T23:48:45.124Z,99.90
2022-07-26T23:51:12.169Z,99.90
2022-07-26T23:53:39.124Z,99.90
2022-07-26T23:56:06.450Z,99.90
2022-07-26T23:58:33.505Z,99.90
